BAW309 LFPG-EGLL
Flight info
| Callsign | BAW309 |
|---|---|
| Flight time | 0h 41m |
| Altitude | 24000 |
| Route | OPALE DCT KESAX DCT DIMAL DCT ALESO |
| Aircraft | A320/M-SDE3FGHIRWY/LB1 |
Departure
| Time | 2026-05-08 19:34 |
|---|---|
| Airport | Charles de Gaulle International Airport (LFPG) |
Arrival
| Time | 2026-05-08 20:15 |
|---|---|
| Airport | London Heathrow Airport (EGLL) |
| Time | Latitude | Longitude | Altitude | Speed | Heading |
|---|---|---|---|---|---|
| 2026-05-08 18:47 | 49.00193 | 2.56739 | 354 ft | 0 kts | 355° |
| 2026-05-08 19:14 | 49.00174 | 2.56741 | 354 ft | 3 kts | 355° |
| 2026-05-08 19:14 | 49.00154 | 2.56744 | 354 ft | 3 kts | 346° |
| 2026-05-08 19:15 | 49.00136 | 2.56755 | 354 ft | 3 kts | 323° |
| 2026-05-08 19:15 | 49.00124 | 2.56775 | 354 ft | 3 kts | 280° |
| 2026-05-08 19:15 | 49.00123 | 2.56786 | 354 ft | 0 kts | 265° |
| 2026-05-08 19:18 | 49.00122 | 2.56781 | 354 ft | 3 kts | 265° |
| 2026-05-08 19:18 | 49.00119 | 2.56719 | 354 ft | 8 kts | 265° |
| 2026-05-08 19:19 | 49.00113 | 2.56612 | 354 ft | 11 kts | 265° |
| 2026-05-08 19:19 | 49.00106 | 2.56479 | 354 ft | 14 kts | 265° |
| 2026-05-08 19:19 | 49.00097 | 2.56312 | 354 ft | 16 kts | 266° |
| 2026-05-08 19:19 | 49.00088 | 2.56145 | 354 ft | 16 kts | 265° |
| 2026-05-08 19:20 | 49.00080 | 2.56000 | 354 ft | 13 kts | 265° |
| 2026-05-08 19:20 | 49.00076 | 2.55915 | 354 ft | 13 kts | 265° |
| 2026-05-08 19:20 | 49.00072 | 2.55740 | 354 ft | 8 kts | 270° |
| 2026-05-08 19:20 | 49.00072 | 2.55727 | 354 ft | 0 kts | 270° |
| 2026-05-08 19:21 | 49.00072 | 2.55726 | 354 ft | 0 kts | 270° |
| 2026-05-08 19:22 | 49.00074 | 2.55668 | 354 ft | 10 kts | 281° |
| 2026-05-08 19:22 | 49.00153 | 2.55600 | 354 ft | 16 kts | 343° |
| 2026-05-08 19:22 | 49.00268 | 2.55549 | 354 ft | 17 kts | 344° |
| 2026-05-08 19:22 | 49.00362 | 2.55508 | 354 ft | 13 kts | 344° |
| 2026-05-08 19:23 | 49.00430 | 2.55478 | 354 ft | 9 kts | 343° |
| 2026-05-08 19:23 | 49.00499 | 2.55448 | 354 ft | 11 kts | 344° |
| 2026-05-08 19:23 | 49.00583 | 2.55412 | 354 ft | 14 kts | 344° |
| 2026-05-08 19:23 | 49.00678 | 2.55371 | 354 ft | 15 kts | 345° |
| 2026-05-08 19:24 | 49.00788 | 2.55324 | 354 ft | 18 kts | 343° |
| 2026-05-08 19:24 | 49.00908 | 2.55271 | 354 ft | 14 kts | 344° |
| 2026-05-08 19:24 | 49.01002 | 2.55230 | 354 ft | 15 kts | 343° |
| 2026-05-08 19:24 | 49.01107 | 2.55184 | 354 ft | 15 kts | 344° |
| 2026-05-08 19:25 | 49.01208 | 2.55141 | 354 ft | 16 kts | 344° |
| 2026-05-08 19:25 | 49.01326 | 2.55089 | 354 ft | 19 kts | 345° |
| 2026-05-08 19:25 | 49.01452 | 2.55043 | 354 ft | 19 kts | 351° |
| 2026-05-08 19:25 | 49.01582 | 2.55023 | 354 ft | 18 kts | 355° |
| 2026-05-08 19:26 | 49.01715 | 2.55008 | 354 ft | 21 kts | 355° |
| 2026-05-08 19:26 | 49.01827 | 2.54986 | 354 ft | 12 kts | 334° |
| 2026-05-08 19:26 | 49.01849 | 2.54869 | 354 ft | 14 kts | 264° |
| 2026-05-08 19:26 | 49.01841 | 2.54713 | 354 ft | 16 kts | 265° |
| 2026-05-08 19:27 | 49.01831 | 2.54541 | 354 ft | 16 kts | 265° |
| 2026-05-08 19:27 | 49.01823 | 2.54365 | 354 ft | 16 kts | 266° |
| 2026-05-08 19:27 | 49.01814 | 2.54177 | 354 ft | 19 kts | 265° |
| 2026-05-08 19:27 | 49.01801 | 2.53964 | 354 ft | 21 kts | 265° |
| 2026-05-08 19:28 | 49.01789 | 2.53736 | 354 ft | 21 kts | 265° |
| 2026-05-08 19:28 | 49.01777 | 2.53515 | 354 ft | 22 kts | 265° |
| 2026-05-08 19:28 | 49.01763 | 2.53278 | 355 ft | 24 kts | 264° |
| 2026-05-08 19:28 | 49.01752 | 2.53058 | 356 ft | 20 kts | 266° |
| 2026-05-08 19:29 | 49.01741 | 2.52840 | 356 ft | 20 kts | 266° |
| 2026-05-08 19:29 | 49.01728 | 2.52617 | 356 ft | 18 kts | 265° |
| 2026-05-08 19:29 | 49.01721 | 2.52447 | 356 ft | 15 kts | 270° |
| 2026-05-08 19:29 | 49.01757 | 2.52341 | 355 ft | 5 kts | 343° |
| 2026-05-08 19:30 | 49.01765 | 2.52345 | 355 ft | 0 kts | 12° |
| 2026-05-08 19:30 | 49.01768 | 2.52346 | 355 ft | 2 kts | 12° |
| 2026-05-08 19:30 | 49.01801 | 2.52355 | 354 ft | 6 kts | 8° |
| 2026-05-08 19:30 | 49.01853 | 2.52353 | 354 ft | 9 kts | 345° |
| 2026-05-08 19:31 | 49.01919 | 2.52350 | 354 ft | 11 kts | 0° |
| 2026-05-08 19:31 | 49.02001 | 2.52340 | 354 ft | 13 kts | 355° |
| 2026-05-08 19:31 | 49.02019 | 2.52338 | 354 ft | 0 kts | 355° |
| 2026-05-08 19:32 | 49.02043 | 2.52336 | 354 ft | 9 kts | 356° |
| 2026-05-08 19:33 | 49.02119 | 2.52365 | 354 ft | 14 kts | 66° |
| 2026-05-08 19:33 | 49.02138 | 2.52683 | 356 ft | 62 kts | 85° |
| 2026-05-08 19:33 | 49.02190 | 2.53672 | 353 ft | 123 kts | 85° |
| 2026-05-08 19:33 | 49.02270 | 2.55218 | 370 ft | 167 kts | 86° |
| 2026-05-08 19:34 | 49.02356 | 2.56986 | 915 ft | 169 kts | 86° |
| 2026-05-08 19:34 | 49.02444 | 2.58788 | 1517 ft | 173 kts | 86° |
| 2026-05-08 19:34 | 49.02545 | 2.60737 | 1801 ft | 197 kts | 85° |
| 2026-05-08 19:34 | 49.02674 | 2.62936 | 2137 ft | 217 kts | 85° |
| 2026-05-08 19:35 | 49.02815 | 2.65334 | 2478 ft | 241 kts | 85° |
| 2026-05-08 19:35 | 49.02957 | 2.67991 | 2861 ft | 267 kts | 86° |
| 2026-05-08 19:35 | 49.03114 | 2.70900 | 3598 ft | 277 kts | 85° |
| 2026-05-08 19:35 | 49.03519 | 2.73757 | 4604 ft | 279 kts | 63° |
| 2026-05-08 19:36 | 49.04812 | 2.75936 | 5476 ft | 283 kts | 30° |
| 2026-05-08 19:36 | 49.06680 | 2.76727 | 6349 ft | 285 kts | 359° |
| 2026-05-08 19:36 | 49.08592 | 2.75945 | 7112 ft | 289 kts | 332° |
| 2026-05-08 19:36 | 49.10302 | 2.74305 | 7899 ft | 293 kts | 324° |
| 2026-05-08 19:37 | 49.11954 | 2.72484 | 8694 ft | 295 kts | 324° |
| 2026-05-08 19:37 | 49.13655 | 2.70677 | 9457 ft | 298 kts | 326° |
| 2026-05-08 19:37 | 49.15414 | 2.68973 | 9864 ft | 301 kts | 328° |
| 2026-05-08 19:37 | 49.17231 | 2.67393 | 9983 ft | 301 kts | 331° |
| 2026-05-08 19:38 | 49.19063 | 2.65932 | 10008 ft | 304 kts | 333° |
| 2026-05-08 19:38 | 49.21054 | 2.64425 | 10013 ft | 332 kts | 333° |
| 2026-05-08 19:38 | 49.23145 | 2.62668 | 10010 ft | 352 kts | 326° |
| 2026-05-08 19:38 | 49.25181 | 2.60498 | 10009 ft | 358 kts | 324° |
| 2026-05-08 19:39 | 49.27228 | 2.58281 | 10414 ft | 363 kts | 324° |
| 2026-05-08 19:39 | 49.29289 | 2.56027 | 10991 ft | 366 kts | 324° |
| 2026-05-08 19:39 | 49.31367 | 2.53747 | 11533 ft | 369 kts | 324° |
| 2026-05-08 19:39 | 49.33463 | 2.51445 | 12054 ft | 372 kts | 324° |
| 2026-05-08 19:40 | 49.35543 | 2.49155 | 12547 ft | 375 kts | 324° |
| 2026-05-08 19:40 | 49.37674 | 2.46803 | 13028 ft | 379 kts | 324° |
| 2026-05-08 19:40 | 49.39821 | 2.44437 | 13488 ft | 382 kts | 324° |
| 2026-05-08 19:40 | 49.41982 | 2.42060 | 13932 ft | 385 kts | 324° |
| 2026-05-08 19:41 | 49.44167 | 2.39658 | 14361 ft | 387 kts | 324° |
| 2026-05-08 19:41 | 49.46371 | 2.37230 | 14776 ft | 390 kts | 324° |
| 2026-05-08 19:41 | 49.48586 | 2.34785 | 15177 ft | 393 kts | 324° |
| 2026-05-08 19:41 | 49.50814 | 2.32323 | 15565 ft | 396 kts | 324° |
| 2026-05-08 19:42 | 49.53054 | 2.29843 | 15945 ft | 398 kts | 324° |
| 2026-05-08 19:42 | 49.55309 | 2.27338 | 16318 ft | 401 kts | 323° |
| 2026-05-08 19:42 | 49.57577 | 2.24816 | 16684 ft | 403 kts | 324° |
| 2026-05-08 19:42 | 49.59859 | 2.22282 | 17042 ft | 406 kts | 324° |
| 2026-05-08 19:43 | 49.62127 | 2.19759 | 17390 ft | 408 kts | 323° |
| 2026-05-08 19:43 | 49.64438 | 2.17184 | 17735 ft | 411 kts | 323° |
| 2026-05-08 19:43 | 49.66764 | 2.14587 | 18076 ft | 413 kts | 323° |
| 2026-05-08 19:43 | 49.67426 | 2.13848 | 18172 ft | 414 kts | 323° |
| 2026-05-08 19:44 | 49.69385 | 2.11657 | 18449 ft | 416 kts | 323° |
| 2026-05-08 19:44 | 49.71739 | 2.09019 | 18773 ft | 419 kts | 323° |
| 2026-05-08 19:44 | 49.74102 | 2.06367 | 19088 ft | 421 kts | 323° |
| 2026-05-08 19:45 | 49.76480 | 2.03696 | 19396 ft | 423 kts | 323° |
| 2026-05-08 19:45 | 49.78870 | 2.01014 | 19698 ft | 425 kts | 323° |
| 2026-05-08 19:45 | 49.81266 | 1.98321 | 19989 ft | 428 kts | 323° |
| 2026-05-08 19:45 | 49.83651 | 1.95640 | 20261 ft | 430 kts | 323° |
| 2026-05-08 19:46 | 49.86076 | 1.92910 | 20522 ft | 432 kts | 323° |
| 2026-05-08 19:46 | 49.88508 | 1.90170 | 20766 ft | 434 kts | 323° |
| 2026-05-08 19:46 | 49.93355 | 1.84546 | 21211 ft | 437 kts | 321° |
| 2026-05-08 19:47 | 49.95743 | 1.81606 | 21415 ft | 438 kts | 321° |
| 2026-05-08 19:47 | 49.98121 | 1.78621 | 21606 ft | 440 kts | 320° |
| 2026-05-08 19:47 | 50.00497 | 1.75621 | 21788 ft | 441 kts | 320° |
| 2026-05-08 19:47 | 50.02886 | 1.72615 | 21959 ft | 443 kts | 321° |
| 2026-05-08 19:48 | 50.05294 | 1.69607 | 22120 ft | 444 kts | 321° |
| 2026-05-08 19:48 | 50.07814 | 1.66942 | 22265 ft | 446 kts | 330° |
| 2026-05-08 19:48 | 50.10615 | 1.64848 | 22412 ft | 447 kts | 335° |
| 2026-05-08 19:48 | 50.13450 | 1.62824 | 22551 ft | 448 kts | 335° |
| 2026-05-08 19:49 | 50.16280 | 1.60786 | 22685 ft | 449 kts | 335° |
| 2026-05-08 19:49 | 50.19116 | 1.58722 | 22814 ft | 450 kts | 334° |
| 2026-05-08 19:49 | 50.21958 | 1.56642 | 22939 ft | 451 kts | 334° |
| 2026-05-08 19:49 | 50.24799 | 1.54565 | 23064 ft | 452 kts | 334° |
| 2026-05-08 19:50 | 50.27648 | 1.52484 | 23189 ft | 453 kts | 334° |
| 2026-05-08 19:50 | 50.30468 | 1.50423 | 23314 ft | 453 kts | 334° |
| 2026-05-08 19:50 | 50.33329 | 1.48329 | 23439 ft | 454 kts | 334° |
| 2026-05-08 19:50 | 50.36189 | 1.46236 | 23564 ft | 454 kts | 334° |
| 2026-05-08 19:51 | 50.39054 | 1.44136 | 23689 ft | 455 kts | 334° |
| 2026-05-08 19:51 | 50.41913 | 1.42033 | 23813 ft | 455 kts | 334° |
| 2026-05-08 19:51 | 50.44779 | 1.39920 | 23966 ft | 455 kts | 334° |
| 2026-05-08 19:51 | 50.47601 | 1.37652 | 24009 ft | 457 kts | 328° |
| 2026-05-08 19:52 | 50.50187 | 1.34745 | 24009 ft | 459 kts | 319° |
| 2026-05-08 19:52 | 50.52463 | 1.31222 | 24012 ft | 461 kts | 312° |
| 2026-05-08 19:52 | 50.54645 | 1.27499 | 24009 ft | 464 kts | 312° |
| 2026-05-08 19:52 | 50.56805 | 1.23815 | 24010 ft | 466 kts | 312° |
| 2026-05-08 19:53 | 50.59025 | 1.20081 | 24009 ft | 468 kts | 313° |
| 2026-05-08 19:53 | 50.61304 | 1.16406 | 24009 ft | 470 kts | 314° |
| 2026-05-08 19:53 | 50.63626 | 1.12774 | 24009 ft | 471 kts | 315° |
| 2026-05-08 19:53 | 50.65973 | 1.09153 | 24009 ft | 473 kts | 315° |
| 2026-05-08 19:54 | 50.68325 | 1.05523 | 24007 ft | 474 kts | 315° |
| 2026-05-08 19:54 | 50.70666 | 1.01875 | 23769 ft | 473 kts | 315° |
| 2026-05-08 19:54 | 50.72847 | 0.98438 | 23534 ft | 471 kts | 314° |
| 2026-05-08 19:55 | 50.74540 | 0.95746 | 23350 ft | 470 kts | 314° |
| 2026-05-08 19:55 | 50.76833 | 0.92078 | 23100 ft | 468 kts | 314° |
| 2026-05-08 19:55 | 50.79113 | 0.88419 | 22850 ft | 466 kts | 314° |
| 2026-05-08 19:56 | 50.81380 | 0.84778 | 22600 ft | 464 kts | 314° |
| 2026-05-08 19:56 | 50.83622 | 0.81177 | 22196 ft | 458 kts | 314° |
| 2026-05-08 19:56 | 50.85856 | 0.77589 | 21416 ft | 453 kts | 314° |
| 2026-05-08 19:56 | 50.88052 | 0.74064 | 20696 ft | 447 kts | 314° |
| 2026-05-08 19:57 | 50.90218 | 0.70586 | 20003 ft | 441 kts | 314° |
| 2026-05-08 19:57 | 50.92334 | 0.67187 | 19345 ft | 436 kts | 314° |
| 2026-05-08 19:57 | 50.94444 | 0.63785 | 18701 ft | 431 kts | 314° |
| 2026-05-08 19:57 | 50.96538 | 0.60403 | 18178 ft | 426 kts | 314° |
| 2026-05-08 19:58 | 50.98610 | 0.57061 | 17984 ft | 426 kts | 314° |
| 2026-05-08 19:58 | 51.00692 | 0.53702 | 18009 ft | 426 kts | 314° |
| 2026-05-08 19:58 | 51.02770 | 0.50342 | 17305 ft | 428 kts | 314° |
| 2026-05-08 19:58 | 51.04858 | 0.46951 | 16710 ft | 424 kts | 314° |
| 2026-05-08 19:59 | 51.06894 | 0.43646 | 16285 ft | 414 kts | 314° |
| 2026-05-08 19:59 | 51.08895 | 0.40490 | 16141 ft | 397 kts | 315° |
| 2026-05-08 19:59 | 51.10849 | 0.37504 | 15755 ft | 386 kts | 316° |
| 2026-05-08 19:59 | 51.12779 | 0.34598 | 15105 ft | 385 kts | 316° |
| 2026-05-08 20:00 | 51.14720 | 0.31703 | 14623 ft | 379 kts | 316° |
| 2026-05-08 20:00 | 51.16641 | 0.28817 | 14114 ft | 382 kts | 316° |
| 2026-05-08 20:00 | 51.18562 | 0.25896 | 13612 ft | 380 kts | 316° |
| 2026-05-08 20:00 | 51.20456 | 0.22997 | 13112 ft | 375 kts | 315° |
| 2026-05-08 20:01 | 51.22313 | 0.20138 | 12612 ft | 369 kts | 315° |
| 2026-05-08 20:01 | 51.24141 | 0.17314 | 12114 ft | 363 kts | 315° |
| 2026-05-08 20:01 | 51.25944 | 0.14527 | 11638 ft | 358 kts | 315° |
| 2026-05-08 20:01 | 51.27719 | 0.11786 | 11162 ft | 353 kts | 315° |
| 2026-05-08 20:02 | 51.29449 | 0.09112 | 10693 ft | 348 kts | 315° |
| 2026-05-08 20:02 | 51.31178 | 0.06441 | 10218 ft | 344 kts | 315° |
| 2026-05-08 20:02 | 51.32672 | 0.03488 | 9742 ft | 340 kts | 297° |
| 2026-05-08 20:02 | 51.33381 | -0.00053 | 9270 ft | 335 kts | 278° |
| 2026-05-08 20:03 | 51.33689 | -0.03729 | 8796 ft | 332 kts | 276° |
| 2026-05-08 20:03 | 51.33963 | -0.07390 | 8318 ft | 330 kts | 276° |
| 2026-05-08 20:03 | 51.34211 | -0.10752 | 8041 ft | 322 kts | 276° |
| 2026-05-08 20:03 | 51.34467 | -0.14228 | 7998 ft | 306 kts | 276° |
| 2026-05-08 20:04 | 51.34709 | -0.17524 | 8006 ft | 291 kts | 276° |
| 2026-05-08 20:04 | 51.34944 | -0.20715 | 8008 ft | 288 kts | 276° |
| 2026-05-08 20:04 | 51.35170 | -0.23803 | 8009 ft | 287 kts | 276° |
| 2026-05-08 20:04 | 51.35394 | -0.26863 | 8009 ft | 287 kts | 276° |
| 2026-05-08 20:05 | 51.35616 | -0.29890 | 8009 ft | 287 kts | 276° |
| 2026-05-08 20:05 | 51.35847 | -0.33059 | 8009 ft | 287 kts | 276° |
| 2026-05-08 20:05 | 51.36079 | -0.36248 | 7854 ft | 289 kts | 276° |
| 2026-05-08 20:05 | 51.36310 | -0.39428 | 7517 ft | 287 kts | 276° |
| 2026-05-08 20:06 | 51.36539 | -0.42583 | 7168 ft | 285 kts | 276° |
| 2026-05-08 20:06 | 51.36768 | -0.45733 | 6816 ft | 284 kts | 276° |
| 2026-05-08 20:06 | 51.36995 | -0.48865 | 6466 ft | 283 kts | 276° |
| 2026-05-08 20:06 | 51.37210 | -0.51841 | 6131 ft | 282 kts | 276° |
| 2026-05-08 20:07 | 51.37434 | -0.54947 | 5780 ft | 280 kts | 276° |
| 2026-05-08 20:07 | 51.37657 | -0.58040 | 5430 ft | 279 kts | 276° |
| 2026-05-08 20:07 | 51.37879 | -0.61118 | 5079 ft | 278 kts | 276° |
| 2026-05-08 20:07 | 51.38122 | -0.64192 | 4727 ft | 277 kts | 281° |
| 2026-05-08 20:08 | 51.38693 | -0.67116 | 4379 ft | 276 kts | 290° |
| 2026-05-08 20:08 | 51.39301 | -0.69631 | 4047 ft | 276 kts | 291° |
| 2026-05-08 20:08 | 51.39990 | -0.72422 | 3668 ft | 265 kts | 291° |
| 2026-05-08 20:08 | 51.40654 | -0.75105 | 3293 ft | 254 kts | 291° |
| 2026-05-08 20:09 | 51.41287 | -0.77657 | 2956 ft | 243 kts | 291° |
| 2026-05-08 20:09 | 51.41947 | -0.80008 | 2894 ft | 219 kts | 306° |
| 2026-05-08 20:09 | 51.43068 | -0.81427 | 2906 ft | 202 kts | 342° |
| 2026-05-08 20:09 | 51.44431 | -0.81465 | 2917 ft | 196 kts | 18° |
| 2026-05-08 20:10 | 51.45658 | -0.80517 | 2932 ft | 196 kts | 34° |
| 2026-05-08 20:10 | 51.46648 | -0.79042 | 2905 ft | 194 kts | 52° |
| 2026-05-08 20:10 | 51.47316 | -0.77173 | 2901 ft | 194 kts | 70° |
| 2026-05-08 20:10 | 51.47604 | -0.75069 | 2905 ft | 194 kts | 88° |
| 2026-05-08 20:11 | 51.47621 | -0.72915 | 2898 ft | 190 kts | 90° |
| 2026-05-08 20:11 | 51.47635 | -0.70865 | 2754 ft | 179 kts | 90° |
| 2026-05-08 20:11 | 51.47647 | -0.68897 | 2554 ft | 173 kts | 90° |
| 2026-05-08 20:11 | 51.47658 | -0.66989 | 2345 ft | 171 kts | 90° |
| 2026-05-08 20:12 | 51.47669 | -0.65078 | 2115 ft | 170 kts | 90° |
| 2026-05-08 20:12 | 51.47679 | -0.63206 | 1891 ft | 169 kts | 90° |
| 2026-05-08 20:12 | 51.47689 | -0.61297 | 1663 ft | 169 kts | 90° |
| 2026-05-08 20:12 | 51.47698 | -0.59444 | 1443 ft | 168 kts | 90° |
| 2026-05-08 20:13 | 51.47707 | -0.57625 | 1210 ft | 155 kts | 90° |
| 2026-05-08 20:13 | 51.47713 | -0.55952 | 951 ft | 147 kts | 91° |
| 2026-05-08 20:13 | 51.47720 | -0.54339 | 746 ft | 144 kts | 90° |
| 2026-05-08 20:13 | 51.47734 | -0.52745 | 553 ft | 142 kts | 91° |
| 2026-05-08 20:14 | 51.47739 | -0.51166 | 393 ft | 142 kts | 90° |
| 2026-05-08 20:14 | 51.47748 | -0.49592 | 235 ft | 141 kts | 90° |
| 2026-05-08 20:14 | 51.47753 | -0.48017 | 101 ft | 140 kts | 91° |
| 2026-05-08 20:14 | 51.47756 | -0.46632 | 91 ft | 103 kts | 90° |
| 2026-05-08 20:15 | 51.47760 | -0.45759 | 84 ft | 54 kts | 90° |
| 2026-05-08 20:15 | 51.47761 | -0.45328 | 86 ft | 32 kts | 90° |
| 2026-05-08 20:15 | 51.47686 | -0.45175 | 87 ft | 18 kts | 180° |
| 2026-05-08 20:15 | 51.47573 | -0.45174 | 86 ft | 13 kts | 180° |
| 2026-05-08 20:16 | 51.47509 | -0.45246 | 86 ft | 14 kts | 264° |
| 2026-05-08 20:16 | 51.47508 | -0.45419 | 86 ft | 16 kts | 270° |
| 2026-05-08 20:16 | 51.47508 | -0.45618 | 86 ft | 19 kts | 269° |
| 2026-05-08 20:16 | 51.47517 | -0.45831 | 86 ft | 20 kts | 272° |
| 2026-05-08 20:17 | 51.47518 | -0.46062 | 86 ft | 21 kts | 269° |
| 2026-05-08 20:17 | 51.47517 | -0.46296 | 86 ft | 20 kts | 270° |
| 2026-05-08 20:17 | 51.47515 | -0.46533 | 86 ft | 22 kts | 269° |
| 2026-05-08 20:17 | 51.47505 | -0.46735 | 86 ft | 17 kts | 248° |
| 2026-05-08 20:18 | 51.47492 | -0.46932 | 86 ft | 20 kts | 269° |
| 2026-05-08 20:18 | 51.47492 | -0.47164 | 86 ft | 22 kts | 269° |
| 2026-05-08 20:18 | 51.47491 | -0.47424 | 86 ft | 24 kts | 270° |
| 2026-05-08 20:18 | 51.47491 | -0.47701 | 86 ft | 23 kts | 270° |
| 2026-05-08 20:19 | 51.47490 | -0.47961 | 86 ft | 23 kts | 270° |
| 2026-05-08 20:19 | 51.47489 | -0.48214 | 86 ft | 18 kts | 269° |
| 2026-05-08 20:19 | 51.47452 | -0.48358 | 86 ft | 15 kts | 189° |
| 2026-05-08 20:19 | 51.47334 | -0.48359 | 86 ft | 18 kts | 180° |
| 2026-05-08 20:20 | 51.47209 | -0.48358 | 86 ft | 19 kts | 180° |
| 2026-05-08 20:20 | 51.47070 | -0.48357 | 86 ft | 22 kts | 180° |
| 2026-05-08 20:20 | 51.46953 | -0.48356 | 86 ft | 11 kts | 180° |
| 2026-05-08 20:20 | 51.46885 | -0.48381 | 86 ft | 8 kts | 226° |
| 2026-05-08 20:21 | 51.46877 | -0.48487 | 86 ft | 11 kts | 269° |
| 2026-05-08 20:21 | 51.46878 | -0.48615 | 86 ft | 12 kts | 270° |
| 2026-05-08 20:21 | 51.46883 | -0.48712 | 86 ft | 5 kts | 302° |
| 2026-05-08 20:21 | 51.46897 | -0.48714 | 86 ft | 2 kts | 13° |
| 2026-05-08 20:22 | 51.46914 | -0.48715 | 86 ft | 2 kts | 358° |
| 2026-05-08 20:22 | 51.46927 | -0.48715 | 86 ft | 1 kts | 359° |
| 2026-05-08 20:22 | 51.46930 | -0.48715 | 86 ft | 0 kts | 0° |